Time;durP1;ratioP1;P1;durP2;ratioP2;P2;SDS_P1;SDS_P2;PMS_P1;PMS_P2;Temp;Humidity;BMP_temperature;BMP_pressure;BME280_temperature;BME280_humidity;BME280_pressure;Samples;Min_cycle;Max_cycle;Signal;HPM_P1;HPM_P2
2022/06/30 00:02:11;;;;;;;22.15;14.48;;;;;;;;;;4890308;29;20056;-72
2022/06/30 00:09:15;;;;;;;72.07;34.42;;;;;;;;;;4890637;29;20052;-71
2022/06/30 00:11:51;;;;;;;50.35;26.30;;;;;;;;;;4874554;29;20057;-72
2022/06/30 00:14:27;;;;;;;35.58;21.70;;;;;;;;;;4890792;29;20059;-72
2022/06/30 00:17:07;;;;;;;29.02;17.48;;;;;;;;;;4890300;29;20064;-71
2022/06/30 00:20:20;;;;;;;80.93;39.63;;;;;;;;;;4889797;29;20547;-74
2022/06/30 00:40:00;;;;;;;59.42;30.15;;;;;;;;;;4891386;29;20160;-73
2022/06/30 00:50:23;;;;;;;23.08;14.00;;;;;;;;;;4871288;29;20053;-73
2022/06/30 00:52:54;;;;;;;26.52;15.77;;;;;;;;;;4872812;29;20045;-72
2022/06/30 00:55:26;;;;;;;31.75;20.35;;;;;;;;;;4873686;29;20045;-71
2022/06/30 00:58:01;;;;;;;27.58;17.88;;;;;;;;;;4873551;29;20064;-72
2022/06/30 01:00:45;;;;;;;25.92;14.90;;;;;;;;;;4873600;29;20056;-73
2022/06/30 01:03:22;;;;;;;14.95;11.20;;;;;;;;;;4872984;29;20064;-72
2022/06/30 01:05:58;;;;;;;30.95;16.45;;;;;;;;;;4873180;29;20440;-72
2022/06/30 01:08:36;;;;;;;39.33;21.38;;;;;;;;;;4873189;29;20052;-72
2022/06/30 01:13:58;;;;;;;28.88;16.67;;;;;;;;;;4873204;29;20500;-72
2022/06/30 01:16:33;;;;;;;25.77;15.32;;;;;;;;;;4873162;29;20060;-72
2022/06/30 01:19:10;;;;;;;17.40;13.73;;;;;;;;;;4873298;29;20064;-72
2022/06/30 01:22:06;;;;;;;18.23;13.93;;;;;;;;;;4873290;29;20049;-73
2022/06/30 01:24:39;;;;;;;25.58;15.23;;;;;;;;;;4873546;29;20052;-72
2022/06/30 01:27:19;;;;;;;22.85;14.70;;;;;;;;;;4873093;29;20401;-73
2022/06/30 01:30:01;;;;;;;23.20;13.68;;;;;;;;;;4873230;29;20108;-72
2022/06/30 01:32:37;;;;;;;21.77;13.98;;;;;;;;;;4872972;29;20060;-72
2022/06/30 01:35:09;;;;;;;17.88;12.40;;;;;;;;;;4873283;29;20060;-71
2022/06/30 01:37:48;;;;;;;18.75;13.02;;;;;;;;;;4873263;29;20428;-71
2022/06/30 01:40:35;;;;;;;17.33;11.65;;;;;;;;;;4873307;29;20067;-72
2022/06/30 01:43:13;;;;;;;22.20;13.93;;;;;;;;;;4873530;29;20041;-72
2022/06/30 01:45:50;;;;;;;24.08;13.02;;;;;;;;;;4873235;29;20069;-71
2022/06/30 01:48:26;;;;;;;23.98;15.32;;;;;;;;;;4873190;29;20107;-72
2022/06/30 01:51:10;;;;;;;26.90;16.02;;;;;;;;;;4875167;29;20053;-71
2022/06/30 01:53:43;;;;;;;19.67;13.85;;;;;;;;;;4876735;29;20048;-72
2022/06/30 01:56:17;;;;;;;22.80;15.52;;;;;;;;;;4875451;29;20078;-72
2022/06/30 01:58:57;;;;;;;37.78;19.17;;;;;;;;;;4876473;29;20049;-72
2022/06/30 02:01:27;;;;;;;33.50;20.40;;;;;;;;;;4876475;29;20068;-72
2022/06/30 02:04:46;;;;;;;30.38;18.75;;;;;;;;;;4876772;29;20049;-71
2022/06/30 02:06:57;;;;;;;43.25;22.83;;;;;;;;;;4876396;29;20089;-70
2022/06/30 02:09:28;;;;;;;24.90;13.65;;;;;;;;;;4877241;29;20056;-72
2022/06/30 02:14:52;;;;;;;39.40;24.63;;;;;;;;;;4876516;29;20060;-72
2022/06/30 02:17:23;;;;;;;60.53;29.13;;;;;;;;;;4876366;29;20425;-72
2022/06/30 02:19:56;;;;;;;68.90;38.00;;;;;;;;;;4876495;29;20072;-71
2022/06/30 02:22:27;;;;;;;51.63;28.77;;;;;;;;;;4876501;29;20480;-71
2022/06/30 02:24:57;;;;;;;48.08;25.15;;;;;;;;;;4876947;29;20061;-72
2022/06/30 02:27:29;;;;;;;44.35;22.80;;;;;;;;;;4875533;29;20437;-74
2022/06/30 02:30:00;;;;;;;36.88;20.38;;;;;;;;;;4876367;29;20057;-73
2022/06/30 02:32:32;;;;;;;28.90;18.10;;;;;;;;;;4876229;29;20053;-74
2022/06/30 02:35:02;;;;;;;32.55;16.75;;;;;;;;;;4876531;29;20064;-73
2022/06/30 02:37:35;;;;;;;31.25;19.42;;;;;;;;;;4876639;29;20075;-73
2022/06/30 02:40:09;;;;;;;58.85;30.85;;;;;;;;;;4875852;29;20060;-73
2022/06/30 02:42:39;;;;;;;59.42;34.72;;;;;;;;;;4875903;29;20060;-73
2022/06/30 02:45:10;;;;;;;58.03;29.33;;;;;;;;;;4875547;29;20493;-73
2022/06/30 02:47:42;;;;;;;37.90;21.30;;;;;;;;;;4875620;29;20052;-73
2022/06/30 02:50:13;;;;;;;37.28;21.75;;;;;;;;;;4876202;29;20053;-72
2022/06/30 02:52:43;;;;;;;36.38;20.83;;;;;;;;;;4875915;29;20045;-73
2022/06/30 02:55:13;;;;;;;55.22;30.63;;;;;;;;;;4875977;29;20048;-73
2022/06/30 02:57:43;;;;;;;203.27;107.45;;;;;;;;;;4875645;29;20060;-72
2022/06/30 03:00:14;;;;;;;51.50;31.30;;;;;;;;;;4875501;29;20064;-72
2022/06/30 03:02:46;;;;;;;43.38;25.88;;;;;;;;;;4875631;29;20056;-73
2022/06/30 03:05:16;;;;;;;26.40;11.63;;;;;;;;;;4875591;29;20493;-73
2022/06/30 03:07:46;;;;;;;22.13;10.60;;;;;;;;;;4875635;29;20045;-72
2022/06/30 03:10:16;;;;;;;15.40;9.75;;;;;;;;;;4875594;29;20049;-72
2022/06/30 03:12:46;;;;;;;12.65;9.27;;;;;;;;;;4875699;29;20079;-73
2022/06/30 03:15:16;;;;;;;12.57;8.52;;;;;;;;;;4875142;29;20068;-73
2022/06/30 03:17:45;;;;;;;14.45;9.18;;;;;;;;;;4875341;29;20053;-73
2022/06/30 03:20:15;;;;;;;12.88;9.13;;;;;;;;;;4875595;29;20068;-73
2022/06/30 03:22:45;;;;;;;38.55;20.13;;;;;;;;;;4875561;29;20063;-73
2022/06/30 03:25:15;;;;;;;79.30;41.00;;;;;;;;;;4874102;29;20056;-72
2022/06/30 03:27:45;;;;;;;63.53;33.00;;;;;;;;;;4874998;29;20064;-73
2022/06/30 03:30:15;;;;;;;22.45;15.25;;;;;;;;;;4875299;29;20499;-72
2022/06/30 03:32:45;;;;;;;61.75;29.17;;;;;;;;;;4875582;29;20064;-73
2022/06/30 03:35:14;;;;;;;34.20;20.90;;;;;;;;;;4875224;29;20799;-72
2022/06/30 03:37:44;;;;;;;38.92;22.60;;;;;;;;;;4875091;29;20535;-73
2022/06/30 03:40:14;;;;;;;60.97;34.88;;;;;;;;;;4875298;29;20060;-73
2022/06/30 03:42:44;;;;;;;45.83;25.63;;;;;;;;;;4875340;29;20045;-73
2022/06/30 03:45:14;;;;;;;35.78;22.50;;;;;;;;;;4873788;29;20057;-72
2022/06/30 03:47:44;;;;;;;20.92;13.32;;;;;;;;;;4874944;29;20045;-73
2022/06/30 03:50:13;;;;;;;14.38;10.63;;;;;;;;;;4874578;29;20053;-73
2022/06/30 03:52:43;;;;;;;13.43;9.77;;;;;;;;;;4874887;29;20067;-73
2022/06/30 03:55:13;;;;;;;76.32;39.63;;;;;;;;;;4874683;29;20057;-73
2022/06/30 03:57:43;;;;;;;44.38;27.02;;;;;;;;;;4874486;29;20053;-73
2022/06/30 04:00:13;;;;;;;41.15;24.45;;;;;;;;;;4874161;29;20160;-73
2022/06/30 04:02:43;;;;;;;15.55;10.65;;;;;;;;;;4874648;29;20053;-72
2022/06/30 04:05:13;;;;;;;19.55;9.68;;;;;;;;;;4874765;29;20052;-73
2022/06/30 04:07:45;;;;;;;13.50;9.70;;;;;;;;;;4874732;29;20057;-73
2022/06/30 04:10:16;;;;;;;15.70;10.68;;;;;;;;;;4874368;29;20064;-73
2022/06/30 04:12:46;;;;;;;;;;;;;;;;;;4874405;29;20499;-73
2022/06/30 04:15:16;;;;;;;24.25;14.25;;;;;;;;;;4873826;29;20545;-73
2022/06/30 04:17:45;;;;;;;15.48;10.95;;;;;;;;;;4874069;29;20073;-73
2022/06/30 04:20:18;;;;;;;16.45;11.15;;;;;;;;;;4874690;29;20055;-72
2022/06/30 04:22:50;;;;;;;13.48;11.43;;;;;;;;;;4874307;29;20049;-72
2022/06/30 04:25:21;;;;;;;16.75;11.50;;;;;;;;;;4873990;29;20086;-73
2022/06/30 04:27:54;;;;;;;16.58;12.02;;;;;;;;;;4874199;29;20048;-73
2022/06/30 04:33:13;;;;;;;13.52;10.77;;;;;;;;;;4874358;29;20056;-72
2022/06/30 04:35:43;;;;;;;17.90;10.73;;;;;;;;;;4874071;29;20064;-73
2022/06/30 04:38:13;;;;;;;15.60;10.70;;;;;;;;;;4874175;29;20049;-74
2022/06/30 04:43:31;;;;;;;14.45;11.18;;;;;;;;;;4873882;29;20049;-72
2022/06/30 04:46:02;;;;;;;16.85;12.38;;;;;;;;;;4873417;29;20056;-72
2022/06/30 04:48:32;;;;;;;16.55;12.43;;;;;;;;;;4873667;29;20053;-73
2022/06/30 04:51:02;;;;;;;16.57;10.97;;;;;;;;;;4873730;29;20057;-72
2022/06/30 04:53:32;;;;;;;13.35;11.02;;;;;;;;;;4874037;29;20072;-72
2022/06/30 04:56:02;;;;;;;29.90;19.13;;;;;;;;;;4872028;29;20060;-73
2022/06/30 04:58:32;;;;;;;16.13;11.82;;;;;;;;;;4874404;29;20049;-73
2022/06/30 05:01:03;;;;;;;26.60;18.45;;;;;;;;;;4873946;29;21048;-73
2022/06/30 05:03:34;;;;;;;24.55;15.35;;;;;;;;;;4873728;29;20044;-73
2022/06/30 05:06:06;;;;;;;23.40;14.18;;;;;;;;;;4872422;29;20063;-73
2022/06/30 05:08:36;;;;;;;19.50;12.02;;;;;;;;;;4873669;29;20068;-72
2022/06/30 05:11:06;;;;;;;15.18;11.40;;;;;;;;;;4874024;29;20052;-73
2022/06/30 05:13:36;;;;;;;14.98;10.50;;;;;;;;;;4873839;29;20057;-72
2022/06/30 05:16:06;;;;;;;17.60;12.00;;;;;;;;;;4873665;29;20064;-72
2022/06/30 05:18:36;;;;;;;14.27;11.93;;;;;;;;;;4873327;29;20527;-73
2022/06/30 05:21:06;;;;;;;14.65;11.80;;;;;;;;;;4873240;29;20052;-73
2022/06/30 05:23:36;;;;;;;16.55;11.60;;;;;;;;;;4873151;29;20052;-73
2022/06/30 05:28:54;;;;;;;21.42;14.65;;;;;;;;;;4873013;29;20056;-78
2022/06/30 05:31:24;;;;;;;18.25;14.13;;;;;;;;;;4871984;29;20057;-73
2022/06/30 05:33:54;;;;;;;25.05;16.13;;;;;;;;;;4873169;29;20500;-72
2022/06/30 05:36:24;;;;;;;15.10;11.45;;;;;;;;;;4872841;29;20493;-72
2022/06/30 05:38:53;;;;;;;17.73;12.82;;;;;;;;;;4873889;29;20497;-72
2022/06/30 05:41:23;;;;;;;15.82;11.52;;;;;;;;;;4872895;29;20077;-71
2022/06/30 05:43:53;;;;;;;17.92;12.30;;;;;;;;;;4872861;29;20092;-73
2022/06/30 05:46:23;;;;;;;18.58;13.25;;;;;;;;;;4873442;29;20417;-73
2022/06/30 05:48:53;;;;;;;19.45;13.50;;;;;;;;;;4872558;29;20119;-73
2022/06/30 05:51:24;;;;;;;21.95;15.65;;;;;;;;;;4873145;29;20505;-73
2022/06/30 05:53:53;;;;;;;21.75;13.90;;;;;;;;;;4872986;29;20057;-73
2022/06/30 05:56:23;;;;;;;21.75;14.80;;;;;;;;;;4872955;29;20056;-72
2022/06/30 05:58:53;;;;;;;23.08;15.15;;;;;;;;;;4872852;29;20079;-73
2022/06/30 06:01:23;;;;;;;23.33;12.52;;;;;;;;;;4873234;29;20044;-73
2022/06/30 06:03:53;;;;;;;22.35;13.13;;;;;;;;;;4873000;29;20064;-73
2022/06/30 06:06:23;;;;;;;15.45;11.88;;;;;;;;;;4872787;29;20049;-73
2022/06/30 06:08:53;;;;;;;16.08;12.70;;;;;;;;;;4872929;29;20049;-73
2022/06/30 06:11:22;;;;;;;21.52;13.40;;;;;;;;;;4873124;29;20049;-73
2022/06/30 06:13:52;;;;;;;19.42;13.35;;;;;;;;;;4872466;29;20053;-73
2022/06/30 06:16:22;;;;;;;19.20;14.23;;;;;;;;;;4873638;29;20378;-73
2022/06/30 06:18:52;;;;;;;16.40;12.43;;;;;;;;;;4872956;29;20060;-73
2022/06/30 06:21:22;;;;;;;19.55;13.55;;;;;;;;;;4872732;29;20045;-73
2022/06/30 06:23:52;;;;;;;14.75;11.43;;;;;;;;;;4872923;29;20441;-72
2022/06/30 06:26:23;;;;;;;14.13;11.32;;;;;;;;;;4872516;29;20491;-73
2022/06/30 06:29:09;;;;;;;16.92;11.68;;;;;;;;;;4872292;29;20416;-72
2022/06/30 06:31:40;;;;;;;15.98;11.80;;;;;;;;;;4872905;29;20068;-72
2022/06/30 06:34:10;;;;;;;18.75;13.10;;;;;;;;;;4872607;29;20048;-72
2022/06/30 06:36:40;;;;;;;18.27;11.73;;;;;;;;;;4874257;29;20052;-72
2022/06/30 06:39:11;;;;;;;36.30;21.13;;;;;;;;;;4876054;29;20523;-73
2022/06/30 06:41:41;;;;;;;59.85;26.92;;;;;;;;;;4876168;29;20076;-73
2022/06/30 06:44:11;;;;;;;41.35;20.42;;;;;;;;;;4875938;29;20509;-73
2022/06/30 06:46:41;;;;;;;24.85;16.80;;;;;;;;;;4876615;29;20060;-73
2022/06/30 06:49:11;;;;;;;27.13;16.58;;;;;;;;;;4876162;29;20064;-72
2022/06/30 06:51:41;;;;;;;20.70;12.95;;;;;;;;;;4876092;29;20049;-73
2022/06/30 06:54:12;;;;;;;25.97;12.97;;;;;;;;;;4875421;29;20056;-73
2022/06/30 06:56:41;;;;;;;17.48;11.18;;;;;;;;;;4875881;29;20290;-73
2022/06/30 06:59:11;;;;;;;18.98;11.90;;;;;;;;;;4875928;29;20057;-73
2022/06/30 07:01:41;;;;;;;19.63;12.18;;;;;;;;;;4875315;29;20057;-73
2022/06/30 07:04:11;;;;;;;17.60;11.45;;;;;;;;;;4875911;29;20061;-73
2022/06/30 07:06:43;;;;;;;13.50;10.95;;;;;;;;;;4875604;29;20057;-73
2022/06/30 07:09:13;;;;;;;18.92;11.60;;;;;;;;;;4876048;29;20041;-74
2022/06/30 07:11:43;;;;;;;14.48;10.75;;;;;;;;;;4875472;29;20417;-73
2022/06/30 07:14:13;;;;;;;22.00;13.90;;;;;;;;;;4874942;29;20053;-71
2022/06/30 07:16:43;;;;;;;17.60;11.88;;;;;;;;;;4875548;29;20056;-73
2022/06/30 07:19:13;;;;;;;15.65;10.98;;;;;;;;;;4875141;29;20060;-72
2022/06/30 07:21:44;;;;;;;;;;;;;;;;;;4875851;29;20067;-73
2022/06/30 07:24:14;;;;;;;15.35;11.25;;;;;;;;;;4875200;29;19935;-73
2022/06/30 07:26:44;;;;;;;15.63;11.68;;;;;;;;;;4873745;29;20079;-73
2022/06/30 07:29:15;;;;;;;16.52;10.82;;;;;;;;;;4875054;29;20049;-73
2022/06/30 07:31:44;;;;;;;14.80;11.07;;;;;;;;;;4874954;29;20045;-73
2022/06/30 07:34:14;;;;;;;15.50;10.85;;;;;;;;;;4873690;29;20500;-73
2022/06/30 07:36:45;;;;;;;13.40;9.93;;;;;;;;;;4875277;29;20080;-73
2022/06/30 07:39:15;;;;;;;16.50;10.98;;;;;;;;;;4875192;29;20063;-73
2022/06/30 07:41:45;;;;;;;17.73;10.57;;;;;;;;;;4875583;29;20065;-72
2022/06/30 07:44:14;;;;;;;14.30;10.57;;;;;;;;;;4873746;29;20053;-73
2022/06/30 07:46:45;;;;;;;19.13;11.93;;;;;;;;;;4874969;29;20421;-72
2022/06/30 07:49:15;;;;;;;18.70;11.40;;;;;;;;;;4874023;29;20052;-73
2022/06/30 07:51:44;;;;;;;14.80;10.63;;;;;;;;;;4875009;29;20060;-73
2022/06/30 07:54:15;;;;;;;17.02;11.15;;;;;;;;;;4874458;29;20053;-73
2022/06/30 07:56:46;;;;;;;15.27;11.75;;;;;;;;;;4875021;29;20076;-71
2022/06/30 07:59:16;;;;;;;16.35;10.70;;;;;;;;;;4873473;29;20053;-72
2022/06/30 08:01:46;;;;;;;18.90;11.27;;;;;;;;;;4874613;29;20057;-72
2022/06/30 08:04:17;;;;;;;15.48;10.73;;;;;;;;;;4874016;29;20053;-73
2022/06/30 08:06:48;;;;;;;13.68;9.70;;;;;;;;;;4874264;29;20497;-73
2022/06/30 08:09:19;;;;;;;16.52;9.73;;;;;;;;;;4874155;29;20048;-72
2022/06/30 08:11:49;;;;;;;13.20;9.75;;;;;;;;;;4873968;29;20787;-73
2022/06/30 08:14:18;;;;;;;14.90;9.60;;;;;;;;;;4874358;29;20060;-73
2022/06/30 08:16:49;;;;;;;16.92;9.45;;;;;;;;;;4874181;29;20559;-72
2022/06/30 08:19:19;;;;;;;14.70;10.35;;;;;;;;;;4874398;29;20056;-73
2022/06/30 08:21:49;;;;;;;13.80;9.32;;;;;;;;;;4874536;29;20424;-73
2022/06/30 08:24:20;;;;;;;11.52;9.05;;;;;;;;;;4874696;29;20049;-72
2022/06/30 08:26:51;;;;;;;13.93;9.65;;;;;;;;;;4874117;29;20053;-73
2022/06/30 08:29:21;;;;;;;13.60;9.63;;;;;;;;;;4873988;29;20052;-72
2022/06/30 08:31:51;;;;;;;12.77;9.05;;;;;;;;;;4873508;29;20060;-73
2022/06/30 08:34:21;;;;;;;16.90;9.18;;;;;;;;;;4874165;29;20083;-73
2022/06/30 08:36:51;;;;;;;11.60;9.02;;;;;;;;;;4873747;29;20057;-73
2022/06/30 08:42:11;;;;;;;9.70;7.63;;;;;;;;;;4873859;29;20409;-73
2022/06/30 08:44:43;;;;;;;12.38;8.88;;;;;;;;;;4873396;29;20064;-73
2022/06/30 08:47:13;;;;;;;;;;;;;;;;;;4874515;29;20056;-72
2022/06/30 08:49:42;;;;;;;11.32;7.80;;;;;;;;;;4873564;29;20445;-72
2022/06/30 08:52:13;;;;;;;9.32;7.30;;;;;;;;;;4873720;29;20061;-73
2022/06/30 08:54:43;;;;;;;13.48;8.65;;;;;;;;;;4873843;29;20049;-72
2022/06/30 08:57:13;;;;;;;10.43;7.75;;;;;;;;;;4873645;29;20810;-73
2022/06/30 08:59:43;;;;;;;11.40;7.20;;;;;;;;;;4873531;29;20056;-73
2022/06/30 09:02:13;;;;;;;11.93;8.88;;;;;;;;;;4873707;29;20057;-74
2022/06/30 09:04:43;;;;;;;10.23;8.00;;;;;;;;;;4873564;29;20072;-71
2022/06/30 09:07:13;;;;;;;11.85;7.68;;;;;;;;;;4873457;29;20055;-73
2022/06/30 09:09:43;;;;;;;11.65;8.30;;;;;;;;;;4873421;29;20049;-73
2022/06/30 09:12:18;;;;;;;11.63;8.38;;;;;;;;;;4873604;29;20056;-72
2022/06/30 09:14:49;;;;;;;14.35;8.13;;;;;;;;;;4873554;29;20041;-72
2022/06/30 09:17:21;;;;;;;12.07;8.30;;;;;;;;;;4873350;29;20044;-73
2022/06/30 09:20:09;;;;;;;10.63;7.97;;;;;;;;;;4872465;29;20053;-73
2022/06/30 09:22:41;;;;;;;10.40;8.02;;;;;;;;;;4873179;29;20053;-73
2022/06/30 09:25:16;;;;;;;10.18;7.32;;;;;;;;;;4873115;29;20051;-72
2022/06/30 09:27:49;;;;;;;10.43;7.72;;;;;;;;;;4873342;29;21183;-72
2022/06/30 09:30:21;;;;;;;9.35;7.28;;;;;;;;;;4873478;29;20059;-73
2022/06/30 09:32:55;;;;;;;10.07;7.20;;;;;;;;;;4873637;29;20068;-72
2022/06/30 09:35:28;;;;;;;10.07;6.60;;;;;;;;;;4873052;29;20060;-72
2022/06/30 09:38:18;;;;;;;8.85;6.43;;;;;;;;;;4872968;29;20505;-72
2022/06/30 09:41:04;;;;;;;10.95;7.00;;;;;;;;;;4873439;29;20052;-73
2022/06/30 09:43:37;;;;;;;9.50;6.75;;;;;;;;;;4873023;29;20425;-72
2022/06/30 09:46:08;;;;;;;17.15;6.93;;;;;;;;;;4873244;29;20068;-72
2022/06/30 09:48:41;;;;;;;9.88;6.75;;;;;;;;;;4873030;29;20489;-74
2022/06/30 09:51:12;;;;;;;8.77;6.32;;;;;;;;;;4873291;29;20052;-72
2022/06/30 09:53:42;;;;;;;9.35;6.88;;;;;;;;;;4873540;29;20056;-73
2022/06/30 09:56:18;;;;;;;10.60;7.20;;;;;;;;;;4873171;29;20060;-76
2022/06/30 09:58:48;;;;;;;7.55;6.75;;;;;;;;;;4872222;29;20309;-73
2022/06/30 10:01:18;;;;;;;9.02;6.65;;;;;;;;;;4872674;29;20501;-72
2022/06/30 10:04:01;;;;;;;15.88;6.43;;;;;;;;;;4871626;29;20056;-72
2022/06/30 10:06:31;;;;;;;45.33;7.93;;;;;;;;;;4873208;29;20501;-72
2022/06/30 10:09:01;;;;;;;14.30;5.93;;;;;;;;;;4872705;29;20064;-73
2022/06/30 10:11:31;;;;;;;12.88;6.50;;;;;;;;;;4872922;29;20053;-73
2022/06/30 10:14:02;;;;;;;7.40;6.03;;;;;;;;;;4876617;29;20073;-74
2022/06/30 10:16:32;;;;;;;24.17;6.60;;;;;;;;;;4876776;29;20496;-75
2022/06/30 10:19:02;;;;;;;12.63;5.97;;;;;;;;;;4876402;29;20138;-73
2022/06/30 10:21:33;;;;;;;6.63;5.80;;;;;;;;;;4876099;29;20061;-72
2022/06/30 10:24:08;;;;;;;10.32;5.43;;;;;;;;;;4876651;29;20060;-75
2022/06/30 10:29:27;;;;;;;7.07;5.85;;;;;;;;;;4876153;29;20055;-72
2022/06/30 10:32:11;;;;;;;9.70;7.05;;;;;;;;;;4875819;29;20049;-73
2022/06/30 10:34:51;;;;;;;11.48;6.45;;;;;;;;;;4875949;29;20513;-70
2022/06/30 10:37:36;;;;;;;6.40;5.47;;;;;;;;;;4875963;29;20525;-72
2022/06/30 10:40:25;;;;;;;6.28;5.60;;;;;;;;;;4875649;29;20049;-73
2022/06/30 10:42:58;;;;;;;8.18;6.38;;;;;;;;;;4876341;29;20071;-73
2022/06/30 10:45:27;;;;;;;20.17;6.63;;;;;;;;;;4876023;29;20417;-72
2022/06/30 10:48:09;;;;;;;9.68;7.53;;;;;;;;;;4876505;29;20057;-74
2022/06/30 10:50:39;;;;;;;;;;;;;;;;;;4876500;29;20424;-76
2022/06/30 10:53:14;;;;;;;10.45;5.97;;;;;;;;;;4875733;29;19924;-72
2022/06/30 10:55:47;;;;;;;15.60;6.93;;;;;;;;;;4875957;29;20052;-73
2022/06/30 10:58:19;;;;;;;11.07;7.07;;;;;;;;;;4876006;29;20087;-72
2022/06/30 11:01:05;;;;;;;20.08;7.63;;;;;;;;;;4875765;29;20059;-71
2022/06/30 11:03:35;;;;;;;9.88;6.47;;;;;;;;;;4874409;29;20057;-75
2022/06/30 11:06:09;;;;;;;131.63;55.83;;;;;;;;;;4875638;29;20052;-71
2022/06/30 11:08:57;;;;;;;158.18;71.85;;;;;;;;;;4876031;29;20509;-72
2022/06/30 11:11:29;;;;;;;127.35;60.58;;;;;;;;;;4875714;29;20517;-72
2022/06/30 11:14:02;;;;;;;54.80;28.83;;;;;;;;;;4875232;29;20045;-74
2022/06/30 11:16:34;;;;;;;50.78;23.58;;;;;;;;;;4876143;29;20067;-73
2022/06/30 11:19:13;;;;;;;58.08;30.42;;;;;;;;;;4875753;29;20049;-73
2022/06/30 11:21:45;;;;;;;66.30;19.27;;;;;;;;;;4875400;29;20049;-73
2022/06/30 11:24:16;;;;;;;74.80;46.38;;;;;;;;;;4875292;29;20049;-73
2022/06/30 11:29:39;;;;;;;38.85;26.80;;;;;;;;;;4875220;29;20064;-73
2022/06/30 11:32:09;;;;;;;24.52;17.67;;;;;;;;;;4875722;29;20048;-72
2022/06/30 11:34:40;;;;;;;23.83;15.68;;;;;;;;;;4873859;29;20398;-73
2022/06/30 11:37:11;;;;;;;15.18;11.35;;;;;;;;;;4874965;29;20056;-73
2022/06/30 11:39:41;;;;;;;23.10;7.10;;;;;;;;;;4875141;29;20052;-74
2022/06/30 11:42:11;;;;;;;15.00;5.95;;;;;;;;;;4874767;29;20052;-78
2022/06/30 11:44:42;;;;;;;9.75;5.30;;;;;;;;;;4874718;29;20053;-74
2022/06/30 11:47:17;;;;;;;14.73;10.40;;;;;;;;;;4875009;29;20523;-81
2022/06/30 11:49:52;;;;;;;10.18;6.22;;;;;;;;;;4874941;29;20064;-74
2022/06/30 11:52:23;;;;;;;33.00;7.25;;;;;;;;;;4874714;29;20048;-74
2022/06/30 11:54:57;;;;;;;7.95;5.70;;;;;;;;;;4875176;29;20057;-74
2022/06/30 11:57:31;;;;;;;18.50;5.78;;;;;;;;;;4874523;29;20056;-75
2022/06/30 12:00:07;;;;;;;14.50;4.95;;;;;;;;;;4874580;29;20049;-74
2022/06/30 12:02:39;;;;;;;5.65;4.15;;;;;;;;;;4877395;29;20063;-74
2022/06/30 12:05:13;;;;;;;7.65;4.28;;;;;;;;;;4874720;29;20056;-75
2022/06/30 12:07:45;;;;;;;10.30;3.90;;;;;;;;;;4873961;29;20049;-75
2022/06/30 12:10:24;;;;;;;12.82;5.43;;;;;;;;;;4874019;29;20052;-78
2022/06/30 12:12:58;;;;;;;11.88;4.50;;;;;;;;;;4873993;29;20049;-76
2022/06/30 12:15:29;;;;;;;9.20;4.53;;;;;;;;;;4874455;29;20049;-74
2022/06/30 12:18:03;;;;;;;5.90;4.30;;;;;;;;;;4874088;29;20060;-71
2022/06/30 12:20:34;;;;;;;6.10;4.28;;;;;;;;;;4873872;29;20424;-76
2022/06/30 12:23:05;;;;;;;16.13;4.70;;;;;;;;;;4874414;29;20045;-71
2022/06/30 12:25:35;;;;;;;25.15;4.95;;;;;;;;;;4874296;29;20053;-71
2022/06/30 12:28:05;;;;;;;6.90;4.25;;;;;;;;;;4874262;29;20492;-73
2022/06/30 12:30:37;;;;;;;26.45;7.22;;;;;;;;;;4873847;29;20111;-73
2022/06/30 12:33:08;;;;;;;10.55;4.07;;;;;;;;;;4873790;29;20053;-76
2022/06/30 12:35:38;;;;;;;9.00;4.05;;;;;;;;;;4873452;29;20057;-73
2022/06/30 12:38:24;;;;;;;42.35;9.55;;;;;;;;;;4873524;29;20059;-73
2022/06/30 12:40:54;;;;;;;7.30;3.92;;;;;;;;;;4874189;29;20389;-73
2022/06/30 12:43:24;;;;;;;5.97;4.10;;;;;;;;;;4873985;29;20052;-73
2022/06/30 12:45:56;;;;;;;5.53;3.72;;;;;;;;;;4873820;29;20068;-80
2022/06/30 12:48:59;;;;;;;6.75;3.60;;;;;;;;;;4874452;29;20065;-75
2022/06/30 12:51:29;;;;;;;6.75;3.70;;;;;;;;;;4863005;29;20080;-75
2022/06/30 12:54:03;;;;;;;8.20;3.92;;;;;;;;;;4871378;29;20060;-75
2022/06/30 12:56:34;;;;;;;46.88;5.45;;;;;;;;;;4873654;29;20055;-75
2022/06/30 12:59:18;;;;;;;4.13;3.05;;;;;;;;;;4873974;29;20134;-72
2022/06/30 13:02:02;;;;;;;12.10;2.88;;;;;;;;;;4873822;29;20057;-75
2022/06/30 13:04:34;;;;;;;4.10;3.15;;;;;;;;;;4873405;29;20052;-73
2022/06/30 13:07:04;;;;;;;3.70;2.97;;;;;;;;;;4873368;29;20037;-76
2022/06/30 13:09:36;;;;;;;9.18;3.78;;;;;;;;;;4873198;29;20057;-74
2022/06/30 13:12:07;;;;;;;7.93;3.58;;;;;;;;;;4873480;29;20104;-73
2022/06/30 13:14:37;;;;;;;5.32;3.20;;;;;;;;;;4873536;29;20056;-74
2022/06/30 13:17:08;;;;;;;74.63;9.23;;;;;;;;;;4873563;29;20068;-73
2022/06/30 13:19:39;;;;;;;7.22;3.25;;;;;;;;;;4873332;29;20425;-74
2022/06/30 13:22:09;;;;;;;9.85;3.95;;;;;;;;;;4873433;29;20055;-75
2022/06/30 13:24:39;;;;;;;9.55;3.28;;;;;;;;;;4873101;29;20413;-74
2022/06/30 13:27:12;;;;;;;4.20;2.90;;;;;;;;;;4872930;29;20041;-77
2022/06/30 13:29:42;;;;;;;9.13;3.08;;;;;;;;;;4873571;29;20080;-73
2022/06/30 13:32:12;;;;;;;20.10;3.97;;;;;;;;;;4873070;29;20057;-79
2022/06/30 13:34:42;;;;;;;6.25;2.20;;;;;;;;;;4873818;29;20053;-73
2022/06/30 13:37:12;;;;;;;10.38;3.05;;;;;;;;;;4872979;29;20045;-73
2022/06/30 13:39:42;;;;;;;4.78;2.70;;;;;;;;;;4873181;29;20053;-73
2022/06/30 13:42:11;;;;;;;3.83;2.40;;;;;;;;;;4873371;29;20159;-73
2022/06/30 13:44:41;;;;;;;2.20;1.88;;;;;;;;;;4872912;29;20069;-74
2022/06/30 13:47:11;;;;;;;11.07;2.50;;;;;;;;;;4876178;29;20053;-78
2022/06/30 13:49:43;;;;;;;4.90;1.95;;;;;;;;;;4876589;29;20092;-74
2022/06/30 13:52:14;;;;;;;8.18;2.70;;;;;;;;;;4876739;29;20415;-73
2022/06/30 13:54:44;;;;;;;13.18;5.40;;;;;;;;;;4876891;29;20057;-74
2022/06/30 13:57:14;;;;;;;3.25;2.40;;;;;;;;;;4877436;29;20048;-76
2022/06/30 13:59:44;;;;;;;38.60;5.07;;;;;;;;;;4876965;29;20663;-73
2022/06/30 14:02:14;;;;;;;9.63;2.88;;;;;;;;;;4876489;29;20060;-73
2022/06/30 14:04:44;;;;;;;22.70;2.95;;;;;;;;;;4876247;29;20052;-73
2022/06/30 14:07:14;;;;;;;3.72;2.10;;;;;;;;;;4877048;29;20053;-74
2022/06/30 14:09:44;;;;;;;2.28;2.08;;;;;;;;;;4876670;29;20048;-72
2022/06/30 14:12:13;;;;;;;10.95;2.20;;;;;;;;;;4876310;29;20053;-75
2022/06/30 14:14:43;;;;;;;22.20;3.35;;;;;;;;;;4877305;29;20052;-73
2022/06/30 14:17:14;;;;;;;15.95;2.78;;;;;;;;;;4876300;29;20505;-73
2022/06/30 14:19:45;;;;;;;3.42;2.30;;;;;;;;;;4876161;29;20061;-74
2022/06/30 14:22:16;;;;;;;4.17;2.10;;;;;;;;;;4876901;29;20071;-74
2022/06/30 14:24:46;;;;;;;14.52;2.50;;;;;;;;;;4876224;29;20053;-73
2022/06/30 14:27:16;;;;;;;16.48;5.13;;;;;;;;;;4876081;29;20444;-75
2022/06/30 14:29:46;;;;;;;4.68;2.53;;;;;;;;;;4875858;29;20140;-74
2022/06/30 14:32:17;;;;;;;8.25;2.38;;;;;;;;;;4874771;29;20057;-78
2022/06/30 14:34:47;;;;;;;8.70;2.55;;;;;;;;;;4875838;29;20061;-74
2022/06/30 14:37:17;;;;;;;6.85;2.50;;;;;;;;;;4878495;29;20538;-73
2022/06/30 14:39:51;;;;;;;6.18;3.20;;;;;;;;;;4885228;29;20060;-73
2022/06/30 14:45:33;;;;;;;17.77;3.90;;;;;;;;;;4875249;29;20056;-73
2022/06/30 14:48:03;;;;;;;5.32;2.90;;;;;;;;;;4875900;29;20073;-78
2022/06/30 14:50:33;;;;;;;4.57;2.30;;;;;;;;;;4875765;29;20674;-74
2022/06/30 14:53:03;;;;;;;10.35;3.03;;;;;;;;;;4876141;29;20457;-73
2022/06/30 14:55:33;;;;;;;8.40;2.50;;;;;;;;;;4875786;29;20049;-74
2022/06/30 14:58:03;;;;;;;5.80;2.70;;;;;;;;;;4874867;29;20060;-74
2022/06/30 15:00:35;;;;;;;1.73;1.63;;;;;;;;;;4875630;29;20071;-74
2022/06/30 15:03:05;;;;;;;2.05;1.85;;;;;;;;;;4875588;29;20461;-73
2022/06/30 15:05:36;;;;;;;4.35;2.75;;;;;;;;;;4875450;29;20076;-74
2022/06/30 15:08:06;;;;;;;3.92;2.70;;;;;;;;;;4874627;29;20389;-77
2022/06/30 15:10:36;;;;;;;8.80;3.85;;;;;;;;;;4875035;29;20065;-74
2022/06/30 15:13:06;;;;;;;3.65;2.92;;;;;;;;;;4874899;29;20041;-73
2022/06/30 15:15:36;;;;;;;5.57;3.67;;;;;;;;;;4875341;29;20059;-72
2022/06/30 15:18:07;;;;;;;6.07;4.03;;;;;;;;;;4875745;29;20064;-74
2022/06/30 15:20:37;;;;;;;9.77;4.90;;;;;;;;;;4875103;29;20508;-74
2022/06/30 15:25:56;;;;;;;10.50;4.85;;;;;;;;;;4875904;29;20386;-74
2022/06/30 15:28:27;;;;;;;9.98;4.60;;;;;;;;;;4875108;29;20053;-73
2022/06/30 15:30:56;;;;;;;4.63;3.70;;;;;;;;;;4875033;29;20060;-73
2022/06/30 15:33:26;;;;;;;6.75;3.75;;;;;;;;;;4874927;29;20049;-74
2022/06/30 15:35:56;;;;;;;7.88;4.15;;;;;;;;;;4874817;29;20413;-74
2022/06/30 15:38:26;;;;;;;5.50;3.92;;;;;;;;;;4874468;29;20060;-74
2022/06/30 15:40:56;;;;;;;5.43;3.60;;;;;;;;;;4874934;29;20052;-74
2022/06/30 15:43:26;;;;;;;6.95;3.85;;;;;;;;;;4874795;29;20049;-75
2022/06/30 15:45:56;;;;;;;8.82;3.50;;;;;;;;;;4874395;29;20057;-74
2022/06/30 15:48:26;;;;;;;4.88;2.80;;;;;;;;;;4875105;29;20045;-73
2022/06/30 15:50:56;;;;;;;7.43;2.92;;;;;;;;;;4874774;29;20056;-75
2022/06/30 15:53:26;;;;;;;8.82;3.08;;;;;;;;;;4874451;29;20496;-73
2022/06/30 15:55:56;;;;;;;3.83;2.75;;;;;;;;;;4872816;29;20513;-75